createdAt,value
2023-04-17T00:03:47.463Z,7.55
2023-04-17T00:08:51.287Z,7.41
2023-04-17T00:13:56.177Z,7.45
2023-04-17T00:18:59.642Z,7.37
2023-04-17T00:24:03.264Z,7.25
2023-04-17T00:29:08.173Z,7.27
2023-04-17T00:34:11.480Z,7.24
2023-04-17T00:39:15.019Z,7.07
2023-04-17T00:44:19.993Z,7.15
2023-04-17T00:49:23.832Z,7.11
2023-04-17T00:54:27.674Z,7.02
2023-04-17T00:59:33.860Z,7.07
2023-04-17T01:04:37.345Z,7.08
2023-04-17T01:09:40.840Z,7.09
2023-04-17T01:14:46.030Z,7.08
2023-04-17T01:19:50.247Z,7.10
2023-04-17T01:24:55.162Z,7.16
2023-04-17T01:29:58.634Z,7.09
2023-04-17T01:35:02.282Z,7.06
2023-04-17T01:40:10.317Z,7.17
2023-04-17T01:45:14.082Z,7.16
2023-04-17T01:50:18.034Z,7.20
2023-04-17T01:55:23.098Z,7.12
2023-04-17T02:00:26.788Z,7.25
2023-04-17T02:05:30.598Z,7.26
2023-04-17T02:10:35.590Z,7.48
2023-04-17T02:15:39.368Z,7.57
2023-04-17T02:20:42.992Z,7.65
2023-04-17T02:25:47.870Z,7.79
2023-04-17T02:30:51.327Z,7.85
2023-04-17T02:35:54.844Z,7.98
2023-04-17T02:41:00.088Z,7.85
2023-04-17T02:46:03.849Z,8.01
2023-04-17T02:51:07.617Z,8.10
2023-04-17T02:56:12.865Z,8.17
2023-04-17T03:01:16.432Z,8.17
2023-04-17T03:06:20.205Z,8.22
2023-04-17T03:11:25.524Z,8.28
2023-04-17T03:16:29.109Z,8.20
2023-04-17T03:21:32.906Z,8.12
2023-04-17T03:26:37.828Z,8.09
2023-04-17T03:31:41.573Z,8.24
2023-04-17T03:36:45.270Z,8.15
2023-04-17T03:41:50.289Z,8.23
2023-04-17T03:46:53.940Z,8.28
2023-04-17T03:51:57.770Z,8.25
2023-04-17T03:57:03.262Z,7.79
2023-04-17T04:02:07.248Z,8.04
2023-04-17T04:07:11.139Z,8.21
2023-04-17T04:12:16.214Z,8.35
2023-04-17T04:17:19.448Z,8.09
2023-04-17T04:22:22.997Z,7.92
2023-04-17T04:27:32.947Z,7.95
2023-04-17T04:32:37.741Z,8.24
2023-04-17T04:37:43.137Z,8.47
2023-04-17T04:42:49.732Z,8.50
2023-04-17T04:47:53.540Z,8.47
2023-04-17T04:52:57.117Z,8.85
2023-04-17T04:58:02.163Z,9.03
2023-04-17T05:03:06.756Z,9.08
2023-04-17T05:08:10.400Z,9.08
2023-04-17T05:13:15.242Z,9.04
2023-04-17T05:18:18.572Z,9.11
2023-04-17T05:23:23.338Z,9.41
2023-04-17T05:28:29.907Z,9.80
2023-04-17T05:33:33.456Z,10.09
2023-04-17T05:38:37.021Z,10.32
2023-04-17T05:43:42.912Z,10.54
2023-04-17T05:48:46.400Z,10.42
2023-04-17T05:53:50.000Z,10.25
2023-04-17T05:58:54.978Z,10.58
2023-04-17T06:03:58.473Z,10.84
2023-04-17T06:09:02.744Z,10.85
2023-04-17T06:14:07.760Z,11.12
2023-04-17T06:19:11.677Z,11.22
2023-04-17T06:24:15.506Z,11.24
2023-04-17T06:29:20.606Z,11.48
2023-04-17T06:34:24.249Z,11.56
2023-04-17T06:39:28.018Z,11.40
2023-04-17T06:44:32.894Z,11.33
2023-04-17T06:49:36.303Z,11.24
2023-04-17T06:54:39.854Z,11.45
2023-04-17T06:59:44.916Z,11.52
2023-04-17T07:04:48.519Z,11.89
2023-04-17T07:09:52.294Z,12.34
2023-04-17T07:14:57.288Z,12.82
2023-04-17T07:20:01.252Z,13.38
2023-04-17T07:25:06.921Z,14.17
2023-04-17T07:30:12.830Z,15.03
2023-04-17T07:35:16.630Z,15.01
2023-04-17T07:40:20.425Z,14.71
2023-04-17T07:45:26.333Z,14.47
2023-04-17T07:50:30.217Z,14.29
2023-04-17T07:55:34.029Z,14.24
2023-04-17T08:00:39.154Z,14.04
2023-04-17T08:05:42.665Z,14.11
2023-04-17T08:10:46.732Z,14.10
2023-04-17T08:15:52.313Z,14.60
2023-04-17T08:20:55.926Z,14.72
2023-04-17T08:25:59.877Z,14.91
2023-04-17T08:31:05.301Z,15.71
2023-04-17T08:36:10.700Z,16.49
2023-04-17T08:41:19.831Z,16.84
2023-04-17T08:46:25.967Z,16.91
2023-04-17T08:51:29.574Z,16.96
2023-04-17T08:56:33.071Z,17.53
2023-04-17T09:01:38.181Z,17.82
2023-04-17T09:06:52.845Z,18.26
2023-04-17T09:12:12.284Z,18.63
2023-04-17T09:17:19.820Z,19.15
2023-04-17T09:22:24.689Z,18.67
2023-04-17T09:27:29.902Z,18.37
2023-04-17T09:32:35.910Z,18.99
2023-04-17T09:37:51.072Z,18.53
2023-04-17T09:42:57.220Z,19.07
2023-04-17T09:48:03.001Z,19.46
2023-04-17T09:53:08.370Z,20.07
2023-04-17T09:58:12.586Z,20.63
2023-04-17T10:03:18.625Z,20.24
2023-04-17T10:08:23.404Z,20.09
2023-04-17T10:13:29.973Z,20.01
2023-04-17T10:18:35.126Z,20.16
2023-04-17T10:23:40.155Z,20.59
2023-04-17T10:28:50.657Z,20.03
2023-04-17T10:33:55.893Z,20.10
2023-04-17T10:39:14.594Z,19.77
2023-04-17T10:44:19.652Z,19.46
2023-04-17T10:49:24.795Z,19.67
2023-04-17T10:54:28.470Z,19.91
2023-04-17T10:59:32.985Z,19.69
2023-04-17T11:04:37.742Z,19.35
2023-04-17T11:09:41.660Z,18.88
2023-04-17T11:14:45.247Z,19.10
2023-04-17T11:19:53.431Z,19.25
2023-04-17T11:24:56.917Z,19.23
2023-04-17T11:30:00.588Z,19.88
2023-04-17T11:35:06.451Z,19.07
2023-04-17T11:40:11.703Z,18.84
2023-04-17T11:45:15.830Z,18.56
2023-04-17T11:50:21.117Z,18.63
2023-04-17T11:55:30.449Z,18.49
2023-04-17T12:00:34.911Z,18.84
2023-04-17T12:05:39.981Z,18.86
2023-04-17T12:10:45.814Z,18.69
2023-04-17T12:15:49.476Z,18.54
2023-04-17T12:20:55.085Z,18.49
2023-04-17T12:25:58.950Z,18.34
2023-04-17T12:31:02.801Z,18.25
2023-04-17T12:36:09.202Z,18.65
2023-04-17T12:41:13.251Z,18.58
2023-04-17T12:46:17.762Z,18.80
2023-04-17T12:51:22.794Z,19.15
2023-04-17T12:56:26.946Z,19.05
2023-04-17T13:01:30.803Z,19.23
2023-04-17T13:06:35.826Z,19.11
2023-04-17T13:11:39.547Z,19.22
2023-04-17T13:16:43.074Z,18.80
2023-04-17T13:21:48.233Z,18.53
2023-04-17T13:26:51.860Z,18.70
2023-04-17T13:31:55.394Z,19.15
2023-04-17T13:37:00.750Z,19.12
2023-04-17T13:42:04.290Z,19.31
2023-04-17T13:47:08.211Z,19.20
2023-04-17T13:52:13.173Z,18.70
2023-04-17T13:57:18.611Z,18.35
2023-04-17T14:02:22.373Z,18.37
2023-04-17T14:07:28.610Z,18.12
2023-04-17T14:12:32.632Z,17.87
2023-04-17T14:17:43.304Z,17.67
2023-04-17T14:22:48.488Z,17.43
2023-04-17T14:27:52.776Z,17.18
2023-04-17T14:32:56.630Z,17.37
2023-04-17T14:38:05.080Z,17.33
2023-04-17T14:43:08.738Z,17.08
2023-04-17T14:48:12.860Z,16.96
2023-04-17T14:53:19.467Z,16.91
2023-04-17T14:58:25.108Z,16.67
2023-04-17T15:03:28.935Z,16.55
2023-04-17T15:08:34.669Z,16.52
2023-04-17T15:13:39.666Z,16.22
2023-04-17T15:18:43.569Z,16.12
2023-04-17T15:23:48.631Z,16.13
2023-04-17T15:28:52.327Z,15.86
2023-04-17T15:33:56.045Z,15.39
2023-04-17T15:39:01.632Z,14.90
2023-04-17T15:44:06.106Z,14.85
2023-04-17T15:49:09.880Z,14.81
2023-04-17T15:54:15.137Z,14.68
2023-04-17T15:59:18.849Z,14.65
2023-04-17T16:04:22.861Z,14.58
2023-04-17T16:09:28.203Z,14.51
2023-04-17T16:14:31.875Z,14.34
2023-04-17T16:19:35.631Z,14.32
2023-04-17T16:24:40.892Z,14.30
2023-04-17T16:29:44.658Z,14.17
2023-04-17T16:34:48.803Z,14.10
2023-04-17T16:39:54.011Z,13.98
2023-04-17T16:44:57.566Z,13.85
2023-04-17T16:50:01.157Z,13.89
2023-04-17T16:55:06.841Z,13.87
2023-04-17T17:00:12.280Z,13.75
2023-04-17T17:05:16.203Z,13.76
2023-04-17T17:10:21.557Z,13.69
2023-04-17T17:15:25.321Z,13.64
2023-04-17T17:20:28.913Z,13.56
2023-04-17T17:25:33.987Z,13.57
2023-04-17T17:30:37.580Z,13.52
2023-04-17T17:35:41.239Z,13.50
2023-04-17T17:40:46.582Z,13.46
2023-04-17T17:45:50.664Z,13.42
2023-04-17T17:50:55.600Z,13.36
2023-04-17T17:56:00.681Z,13.37
2023-04-17T18:01:04.797Z,13.29
2023-04-17T18:06:08.671Z,13.22
2023-04-17T18:11:14.449Z,13.15
2023-04-17T18:16:18.248Z,13.02
2023-04-17T18:21:22.110Z,12.80
2023-04-17T18:26:27.021Z,12.78
2023-04-17T18:31:30.645Z,12.72
2023-04-17T18:36:34.143Z,12.62
2023-04-17T18:41:39.146Z,12.49
2023-04-17T18:46:42.723Z,12.43
2023-04-17T18:51:48.053Z,12.35
2023-04-17T18:56:52.995Z,12.10
2023-04-17T19:01:56.572Z,12.17
2023-04-17T19:07:02.177Z,11.66
2023-04-17T19:12:07.789Z,11.55
2023-04-17T19:17:11.493Z,11.71
2023-04-17T19:22:16.097Z,11.78
2023-04-17T19:27:23.402Z,11.81
2023-04-17T19:32:28.650Z,11.91
2023-04-17T19:37:33.463Z,11.90
2023-04-17T19:42:38.342Z,11.91
2023-04-17T19:47:41.810Z,11.84
2023-04-17T19:52:45.565Z,11.71
2023-04-17T19:57:51.154Z,11.72
2023-04-17T20:02:54.761Z,11.77
2023-04-17T20:07:58.552Z,11.74
2023-04-17T20:13:04.017Z,11.77
2023-04-17T20:18:08.570Z,11.77
2023-04-17T20:23:12.548Z,11.76
2023-04-17T20:28:17.524Z,11.77
2023-04-17T20:33:21.250Z,11.80
2023-04-17T20:38:24.873Z,11.72
2023-04-17T20:43:29.762Z,11.80
2023-04-17T20:48:32.985Z,11.68
2023-04-17T20:53:36.438Z,11.54
2023-04-17T20:58:41.501Z,11.50
2023-04-17T21:03:45.336Z,11.48
2023-04-17T21:08:48.989Z,11.52
2023-04-17T21:13:54.646Z,11.51
2023-04-17T21:18:58.204Z,11.42
2023-04-17T21:24:01.916Z,11.42
2023-04-17T21:29:07.016Z,11.44
2023-04-17T21:34:11.131Z,11.34
2023-04-17T21:39:14.810Z,11.23
2023-04-17T21:44:19.748Z,11.19
2023-04-17T21:49:23.817Z,11.12
2023-04-17T21:54:28.086Z,11.08
2023-04-17T21:59:33.138Z,11.14
2023-04-17T22:04:36.752Z,11.08
2023-04-17T22:09:40.424Z,11.14
2023-04-17T22:14:45.413Z,11.20
2023-04-17T22:19:48.914Z,11.18
2023-04-17T22:24:52.968Z,11.13
2023-04-17T22:29:57.865Z,11.16
2023-04-17T22:35:01.167Z,11.18
2023-04-17T22:40:05.505Z,11.05
2023-04-17T22:45:10.782Z,11.04
2023-04-17T22:50:14.466Z,11.03
2023-04-17T22:55:18.223Z,10.99
2023-04-17T23:00:24.122Z,10.91
2023-04-17T23:05:27.902Z,10.77
2023-04-17T23:10:32.725Z,10.41
2023-04-17T23:15:37.819Z,10.28
2023-04-17T23:20:41.366Z,10.12
2023-04-17T23:25:44.790Z,10.19
2023-04-17T23:30:49.759Z,10.31
2023-04-17T23:35:52.942Z,10.28
2023-04-17T23:40:56.348Z,10.27
2023-04-17T23:46:01.293Z,10.38
2023-04-17T23:51:05.866Z,10.38
2023-04-17T23:56:09.470Z,10.23
